Terminal Aerodrome Forecast
Issued by NWS

Home | Current Version | Previous Version | Text Only | Print | Product List | Glossary On
Versions: 1 2 3 4 5 6 7 8 9 10 11 12 13 14 15 16 17 18 19
000
FTUS43 KIND 210500
TAFLAF
TAF
KLAF 210521Z 2106/2206 13003KT P6SM OVC060
     FM210900 VRB03KT 5SM BR OVC030
     FM211500 15006KT 6SM BR SCT025 OVC050
     FM211800 14006KT P6SM OVC080
      AMD LTD TO CLD VIS AND WIND TIL 211400=

USA.gov is the U.S. government's official web portal to all federal, state and local government web resources and services.